createdAt,value
2022-10-07T00:00:10.824Z,1023.82
2022-10-07T00:01:10.955Z,1023.81
2022-10-07T00:02:10.892Z,1023.84
2022-10-07T00:03:10.802Z,1023.87
2022-10-07T00:04:10.792Z,1023.89
2022-10-07T00:05:10.805Z,1023.88
2022-10-07T00:06:10.782Z,1023.88
2022-10-07T00:07:10.757Z,1023.87
2022-10-07T00:08:10.743Z,1023.85
2022-10-07T00:09:10.736Z,1023.85
2022-10-07T00:10:10.731Z,1023.81
2022-10-07T00:11:10.729Z,1023.81
2022-10-07T00:12:10.695Z,1023.82
2022-10-07T00:13:10.721Z,1023.79
2022-10-07T00:14:10.673Z,1023.82
2022-10-07T00:15:11.698Z,1023.80
2022-10-07T00:16:10.792Z,1023.84
2022-10-07T00:17:10.646Z,1023.86
2022-10-07T00:18:10.635Z,1023.80
2022-10-07T00:19:10.618Z,1023.79
2022-10-07T00:20:10.607Z,1023.82
2022-10-07T00:21:10.624Z,1023.82
2022-10-07T00:22:10.593Z,1023.80
2022-10-07T00:23:10.583Z,1023.82
2022-10-07T00:24:10.569Z,1023.85
2022-10-07T00:25:10.551Z,1023.78
2022-10-07T00:26:10.546Z,1023.84
2022-10-07T00:27:10.561Z,1023.84
2022-10-07T00:28:10.567Z,1023.83
2022-10-07T00:29:10.646Z,1023.85
2022-10-07T00:30:10.655Z,1023.83
2022-10-07T00:31:10.637Z,1023.82
2022-10-07T00:32:10.478Z,1023.85
2022-10-07T00:33:10.472Z,1023.85
2022-10-07T00:34:10.459Z,1023.82
2022-10-07T00:35:10.462Z,1023.82
2022-10-07T00:36:10.962Z,1023.80
2022-10-07T00:37:10.418Z,1023.76
2022-10-07T00:38:10.417Z,1023.77
2022-10-07T00:39:10.398Z,1023.76
2022-10-07T00:40:10.417Z,1023.75
2022-10-07T00:41:10.386Z,1023.75
2022-10-07T00:42:10.417Z,1023.77
2022-10-07T00:43:10.351Z,1023.77
2022-10-07T00:44:10.374Z,1023.71
2022-10-07T00:45:10.349Z,1023.73
2022-10-07T00:46:10.424Z,1023.74
2022-10-07T00:47:10.335Z,1023.70
2022-10-07T00:48:10.339Z,1023.66
2022-10-07T00:49:10.288Z,1023.63
2022-10-07T00:50:10.308Z,1023.59
2022-10-07T00:51:10.264Z,1023.58
2022-10-07T00:52:10.253Z,1023.58
2022-10-07T00:53:10.246Z,1023.58
2022-10-07T00:54:10.241Z,1023.59
2022-10-07T00:55:10.245Z,1023.55
2022-10-07T00:56:10.243Z,1023.63
2022-10-07T00:57:10.200Z,1023.62
2022-10-07T00:58:10.190Z,1023.60
2022-10-07T00:59:10.203Z,1023.56
2022-10-07T01:00:10.205Z,1023.56
2022-10-07T01:01:10.278Z,1023.58
2022-10-07T01:02:10.225Z,1023.53
2022-10-07T01:03:10.130Z,1023.55
2022-10-07T01:04:10.182Z,1023.55
2022-10-07T01:05:10.115Z,1023.53
2022-10-07T01:06:10.103Z,1023.55
2022-10-07T01:07:10.122Z,1023.52
2022-10-07T01:08:10.090Z,1023.51
2022-10-07T01:09:10.076Z,1023.53
2022-10-07T01:10:10.067Z,1023.53
2022-10-07T01:11:10.072Z,1023.50
2022-10-07T01:12:10.057Z,1023.52
2022-10-07T01:13:10.038Z,1023.46
2022-10-07T01:14:10.020Z,1023.51
2022-10-07T01:15:10.012Z,1023.50
2022-10-07T01:16:10.934Z,1023.46
2022-10-07T01:17:10.071Z,1023.42
2022-10-07T01:18:09.976Z,1023.42
2022-10-07T01:19:09.970Z,1023.40
2022-10-07T01:20:09.952Z,1023.38
2022-10-07T01:21:09.945Z,1023.39
2022-10-07T01:22:09.978Z,1023.36
2022-10-07T01:23:09.956Z,1023.38
2022-10-07T01:24:09.947Z,1023.33
2022-10-07T01:25:09.930Z,1023.32
2022-10-07T01:26:09.892Z,1023.31
2022-10-07T01:27:09.900Z,1023.29
2022-10-07T01:28:10.013Z,1023.25
2022-10-07T01:29:09.852Z,1023.26
2022-10-07T01:30:09.845Z,1023.19
2022-10-07T01:31:09.899Z,1023.25
2022-10-07T01:32:09.825Z,1023.23
2022-10-07T01:33:09.866Z,1023.23
2022-10-07T01:34:09.857Z,1023.19
2022-10-07T01:35:09.793Z,1023.18
2022-10-07T01:36:09.774Z,1023.22
2022-10-07T01:37:09.776Z,1023.14
2022-10-07T01:38:09.820Z,1023.14
2022-10-07T01:39:09.743Z,1023.13
2022-10-07T01:40:09.754Z,1023.11
2022-10-07T01:41:09.729Z,1023.12
2022-10-07T01:42:09.718Z,1023.08
2022-10-07T01:43:09.705Z,1023.08
2022-10-07T01:44:09.718Z,1023.08
2022-10-07T01:45:09.688Z,1023.06
2022-10-07T01:46:09.789Z,1023.10
2022-10-07T01:47:09.663Z,1023.07
2022-10-07T01:48:09.653Z,1023.06
2022-10-07T01:49:09.679Z,1023.08
2022-10-07T01:50:09.667Z,1023.08
2022-10-07T01:51:09.623Z,1023.09
2022-10-07T01:52:09.611Z,1023.05
2022-10-07T01:53:09.623Z,1022.98
2022-10-07T01:54:09.591Z,1022.96
2022-10-07T01:55:09.577Z,1022.93
2022-10-07T01:56:12.814Z,1022.92
2022-10-07T01:57:09.558Z,1022.93
2022-10-07T01:58:09.551Z,1022.91
2022-10-07T01:59:09.543Z,1022.88
2022-10-07T02:00:09.522Z,1022.91
2022-10-07T02:01:09.582Z,1022.90
2022-10-07T02:02:09.507Z,1022.91
2022-10-07T02:03:09.483Z,1022.89
2022-10-07T02:04:09.550Z,1022.91
2022-10-07T02:05:09.497Z,1022.87
2022-10-07T02:06:09.512Z,1022.88
2022-10-07T02:07:09.441Z,1022.83
2022-10-07T02:08:09.445Z,1022.87
2022-10-07T02:09:09.432Z,1022.84
2022-10-07T02:10:09.406Z,1022.82
2022-10-07T02:11:09.403Z,1022.79
2022-10-07T02:12:09.391Z,1022.82
2022-10-07T02:13:09.387Z,1022.78
2022-10-07T02:14:09.375Z,1022.76
2022-10-07T02:15:09.357Z,1022.81
2022-10-07T02:16:10.327Z,1022.81
2022-10-07T02:17:09.329Z,1022.81
2022-10-07T02:18:09.329Z,1022.81
2022-10-07T02:19:09.332Z,1022.77
2022-10-07T02:20:09.297Z,1022.77
2022-10-07T02:21:09.301Z,1022.74
2022-10-07T02:22:09.283Z,1022.71
2022-10-07T02:23:09.269Z,1022.74
2022-10-07T02:24:09.257Z,1022.75
2022-10-07T02:25:09.257Z,1022.73
2022-10-07T02:26:09.241Z,1022.73
2022-10-07T02:27:09.226Z,1022.75
2022-10-07T02:28:09.304Z,1022.73
2022-10-07T02:29:09.216Z,1022.73
2022-10-07T02:30:09.217Z,1022.72
2022-10-07T02:31:09.255Z,1022.70
2022-10-07T02:32:09.169Z,1022.70
2022-10-07T02:33:09.157Z,1022.72
2022-10-07T02:34:09.164Z,1022.74
2022-10-07T02:35:09.149Z,1022.71
2022-10-07T02:36:09.137Z,1022.69
2022-10-07T02:37:09.143Z,1022.66
2022-10-07T02:38:09.101Z,1022.66
2022-10-07T02:39:09.100Z,1022.66
2022-10-07T02:40:12.151Z,1022.64
2022-10-07T02:41:09.089Z,1022.62
2022-10-07T02:42:09.057Z,1022.61
2022-10-07T02:43:09.045Z,1022.64
2022-10-07T02:44:09.043Z,1022.62
2022-10-07T02:45:09.036Z,1022.61
2022-10-07T02:46:09.087Z,1022.58
2022-10-07T02:47:09.001Z,1022.58
2022-10-07T02:48:08.989Z,1022.58
2022-10-07T02:49:08.986Z,1022.55
2022-10-07T02:50:08.977Z,1022.56
2022-10-07T02:51:08.961Z,1022.52
2022-10-07T02:52:08.969Z,1022.51
2022-10-07T02:53:08.964Z,1022.54
2022-10-07T02:54:08.926Z,1022.54
2022-10-07T02:55:08.919Z,1022.56
2022-10-07T02:56:08.905Z,1022.55
2022-10-07T02:57:08.908Z,1022.55
2022-10-07T02:58:08.895Z,1022.55
2022-10-07T02:59:08.886Z,1022.53
2022-10-07T03:00:11.347Z,1022.49
2022-10-07T03:01:08.855Z,1022.49
2022-10-07T03:02:08.861Z,1022.44
2022-10-07T03:03:08.853Z,1022.45
2022-10-07T03:04:08.823Z,1022.47
2022-10-07T03:05:08.805Z,1022.47
2022-10-07T03:06:08.803Z,1022.47
2022-10-07T03:07:08.793Z,1022.42
2022-10-07T03:08:08.787Z,1022.42
2022-10-07T03:09:08.789Z,1022.40
2022-10-07T03:10:08.752Z,1022.36
2022-10-07T03:11:08.739Z,1022.42
2022-10-07T03:12:08.739Z,1022.38
2022-10-07T03:13:08.733Z,1022.40
2022-10-07T03:14:08.713Z,1022.35
2022-10-07T03:15:08.701Z,1022.35
2022-10-07T03:16:08.749Z,1022.36
2022-10-07T03:17:08.678Z,1022.37
2022-10-07T03:18:08.662Z,1022.32
2022-10-07T03:19:08.669Z,1022.30
2022-10-07T03:20:08.649Z,1022.28
2022-10-07T03:21:08.642Z,1022.28
2022-10-07T03:22:08.628Z,1022.29
2022-10-07T03:23:08.609Z,1022.27
2022-10-07T03:24:08.911Z,1022.26
2022-10-07T03:25:08.610Z,1022.25
2022-10-07T03:26:08.576Z,1022.25
2022-10-07T03:27:08.574Z,1022.24
2022-10-07T03:28:08.599Z,1022.26
2022-10-07T03:29:08.539Z,1022.29
2022-10-07T03:30:08.539Z,1022.27
2022-10-07T03:31:08.593Z,1022.29
2022-10-07T03:32:08.533Z,1022.29
2022-10-07T03:33:08.513Z,1022.26
2022-10-07T03:34:08.496Z,1022.23
2022-10-07T03:35:08.479Z,1022.24
2022-10-07T03:36:08.478Z,1022.23
2022-10-07T03:37:08.507Z,1022.25
2022-10-07T03:38:08.455Z,1022.28
2022-10-07T03:39:08.442Z,1022.17
2022-10-07T03:40:08.434Z,1022.16
2022-10-07T03:41:08.443Z,1022.17
2022-10-07T03:42:08.412Z,1022.10
2022-10-07T03:43:08.399Z,1022.09
2022-10-07T03:44:08.388Z,1022.09
2022-10-07T03:45:08.386Z,1022.09
2022-10-07T03:46:08.439Z,1022.04
2022-10-07T03:47:10.680Z,1022.08
2022-10-07T03:48:08.344Z,1022.07
2022-10-07T03:49:08.334Z,1022.07
2022-10-07T03:50:08.322Z,1022.03
2022-10-07T03:51:08.416Z,1022.03
2022-10-07T03:52:08.300Z,1022.00
2022-10-07T03:53:08.298Z,1022.03
2022-10-07T03:54:08.277Z,1021.98
2022-10-07T03:55:08.258Z,1021.99
2022-10-07T03:56:08.281Z,1022.01
2022-10-07T03:57:08.329Z,1021.97
2022-10-07T03:58:08.235Z,1021.96
2022-10-07T03:59:08.223Z,1021.96
2022-10-07T04:00:08.214Z,1021.98
2022-10-07T04:01:08.193Z,1021.99
2022-10-07T04:02:08.269Z,1021.93
2022-10-07T04:03:08.239Z,1021.91
2022-10-07T04:04:08.167Z,1021.93
2022-10-07T04:05:08.158Z,1021.91
2022-10-07T04:06:08.149Z,1021.93
2022-10-07T04:07:08.149Z,1021.91
2022-10-07T04:08:08.115Z,1021.92
2022-10-07T04:09:08.111Z,1021.97
2022-10-07T04:10:08.113Z,1021.94
2022-10-07T04:11:08.086Z,1021.96
2022-10-07T04:12:08.073Z,1021.93
2022-10-07T04:13:08.079Z,1021.94
2022-10-07T04:14:08.065Z,1021.85
2022-10-07T04:15:08.040Z,1021.87
2022-10-07T04:16:08.103Z,1021.86
2022-10-07T04:17:08.023Z,1021.85
2022-10-07T04:18:08.013Z,1021.86
2022-10-07T04:19:08.033Z,1021.87
2022-10-07T04:20:07.989Z,1021.87
2022-10-07T04:21:07.982Z,1021.89
2022-10-07T04:22:09.085Z,1021.88
2022-10-07T04:23:07.952Z,1021.82
2022-10-07T04:24:07.948Z,1021.84
2022-10-07T04:25:07.950Z,1021.85
2022-10-07T04:26:07.943Z,1021.86
2022-10-07T04:27:07.987Z,1021.86
2022-10-07T04:28:07.968Z,1021.82
2022-10-07T04:29:07.911Z,1021.83
2022-10-07T04:30:07.883Z,1021.82
2022-10-07T04:31:07.897Z,1021.79
2022-10-07T04:32:07.869Z,1021.78
2022-10-07T04:33:07.840Z,1021.80
2022-10-07T04:34:07.835Z,1021.79
2022-10-07T04:35:07.823Z,1021.79
2022-10-07T04:36:07.809Z,1021.79
2022-10-07T04:37:07.827Z,1021.77
2022-10-07T04:38:07.794Z,1021.75
2022-10-07T04:39:07.782Z,1021.79
2022-10-07T04:40:07.764Z,1021.78
2022-10-07T04:41:07.753Z,1021.79
2022-10-07T04:42:07.762Z,1021.73
2022-10-07T04:43:07.734Z,1021.75
2022-10-07T04:44:07.727Z,1021.78
2022-10-07T04:45:07.736Z,1021.71
2022-10-07T04:46:07.703Z,1021.70
2022-10-07T04:47:07.808Z,1021.69
2022-10-07T04:48:07.684Z,1021.66
2022-10-07T04:49:07.680Z,1021.64
2022-10-07T04:50:07.683Z,1021.61
2022-10-07T04:51:07.647Z,1021.61
2022-10-07T04:52:07.643Z,1021.61
2022-10-07T04:53:07.653Z,1021.61
2022-10-07T04:54:07.612Z,1021.57
2022-10-07T04:55:07.613Z,1021.57
2022-10-07T04:56:07.609Z,1021.56
2022-10-07T04:57:07.592Z,1021.59
2022-10-07T04:58:07.603Z,1021.59
2022-10-07T04:59:07.614Z,1021.61
2022-10-07T05:00:07.553Z,1021.59
2022-10-07T05:01:07.656Z,1021.59
2022-10-07T05:02:07.576Z,1021.60
2022-10-07T05:03:07.528Z,1021.56
2022-10-07T05:04:07.516Z,1021.52
2022-10-07T05:05:07.502Z,1021.51
2022-10-07T05:06:07.494Z,1021.53
2022-10-07T05:07:07.558Z,1021.50
2022-10-07T05:08:07.479Z,1021.49
2022-10-07T05:09:07.490Z,1021.53
2022-10-07T05:10:07.460Z,1021.49
2022-10-07T05:11:07.455Z,1021.51
2022-10-07T05:12:07.444Z,1021.47
2022-10-07T05:13:07.406Z,1021.41
2022-10-07T05:14:07.398Z,1021.43
2022-10-07T05:15:07.383Z,1021.42
2022-10-07T05:16:07.411Z,1021.37
2022-10-07T05:17:07.376Z,1021.39
2022-10-07T05:18:07.370Z,1021.41
2022-10-07T05:19:07.341Z,1021.42
2022-10-07T05:20:08.000Z,1021.42
2022-10-07T05:21:07.318Z,1021.43
2022-10-07T05:22:07.319Z,1021.44
2022-10-07T05:23:07.311Z,1021.42
2022-10-07T05:24:07.292Z,1021.40
2022-10-07T05:25:07.279Z,1021.38
2022-10-07T05:26:07.274Z,1021.38
2022-10-07T05:27:07.261Z,1021.38
2022-10-07T05:28:07.265Z,1021.35
2022-10-07T05:29:07.225Z,1021.32
2022-10-07T05:30:07.226Z,1021.32
2022-10-07T05:31:07.305Z,1021.33
2022-10-07T05:32:07.257Z,1021.27
2022-10-07T05:33:07.301Z,1021.27
2022-10-07T05:34:07.185Z,1021.29
2022-10-07T05:35:07.194Z,1021.29
2022-10-07T05:36:07.155Z,1021.27
2022-10-07T05:37:07.149Z,1021.22
2022-10-07T05:38:07.161Z,1021.23
2022-10-07T05:39:07.136Z,1021.23
2022-10-07T05:40:07.119Z,1021.21
2022-10-07T05:41:07.115Z,1021.20
2022-10-07T05:42:07.092Z,1021.18
2022-10-07T05:43:07.086Z,1021.16
2022-10-07T05:44:07.090Z,1021.17
2022-10-07T05:45:07.054Z,1021.14
2022-10-07T05:46:07.131Z,1021.12
2022-10-07T05:47:07.035Z,1021.12
2022-10-07T05:48:07.028Z,1021.15
2022-10-07T05:49:07.038Z,1021.09
2022-10-07T05:50:07.016Z,1021.13
2022-10-07T05:51:07.015Z,1021.10
2022-10-07T05:52:06.982Z,1021.11
2022-10-07T05:53:06.967Z,1021.16
2022-10-07T05:54:06.964Z,1021.14
2022-10-07T05:55:06.957Z,1021.18
2022-10-07T05:56:06.950Z,1021.14
2022-10-07T05:57:06.942Z,1021.13
2022-10-07T05:58:06.914Z,1021.13
2022-10-07T05:59:06.910Z,1021.14
2022-10-07T06:00:06.926Z,1021.14
2022-10-07T06:01:11.440Z,1021.11
2022-10-07T06:02:06.955Z,1021.13
2022-10-07T06:03:07.046Z,1021.12
2022-10-07T06:04:06.855Z,1021.15
2022-10-07T06:05:06.871Z,1021.14
2022-10-07T06:06:06.834Z,1021.19
2022-10-07T06:07:06.830Z,1021.18
2022-10-07T06:08:06.828Z,1021.17
2022-10-07T06:09:06.798Z,1021.20
2022-10-07T06:10:06.785Z,1021.20
2022-10-07T06:11:06.770Z,1021.20
2022-10-07T06:12:06.780Z,1021.18
2022-10-07T06:13:06.762Z,1021.22
2022-10-07T06:14:06.738Z,1021.22
2022-10-07T06:15:06.926Z,1021.26
2022-10-07T06:16:06.788Z,1021.23
2022-10-07T06:17:06.720Z,1021.21
2022-10-07T06:18:06.706Z,1021.25
2022-10-07T06:19:06.689Z,1021.23
2022-10-07T06:20:06.686Z,1021.24
2022-10-07T06:21:06.694Z,1021.20
2022-10-07T06:22:06.672Z,1021.17
2022-10-07T06:23:06.642Z,1021.20
2022-10-07T06:24:06.629Z,1021.17
2022-10-07T06:25:06.638Z,1021.18
2022-10-07T06:26:06.614Z,1021.10
2022-10-07T06:27:06.601Z,1021.13
2022-10-07T06:28:06.952Z,1021.18
2022-10-07T06:29:06.584Z,1021.12
2022-10-07T06:30:06.571Z,1021.13
2022-10-07T06:31:06.612Z,1021.09
2022-10-07T06:32:06.551Z,1021.08
2022-10-07T06:33:06.553Z,1021.08
2022-10-07T06:34:06.527Z,1021.04
2022-10-07T06:35:06.538Z,1021.17
2022-10-07T06:36:06.508Z,1021.13
2022-10-07T06:37:06.526Z,1021.05
2022-10-07T06:38:06.487Z,1021.08
2022-10-07T06:39:06.490Z,1021.07
2022-10-07T06:40:06.457Z,1021.07
2022-10-07T06:41:06.444Z,1021.09
2022-10-07T06:42:06.439Z,1021.13
2022-10-07T06:43:06.441Z,1021.14
2022-10-07T06:44:06.428Z,1021.17
2022-10-07T06:45:06.469Z,1021.11
2022-10-07T06:46:06.520Z,1021.14
2022-10-07T06:47:11.255Z,1021.13
2022-10-07T06:48:07.374Z,1021.13
2022-10-07T06:49:06.375Z,1021.11
2022-10-07T06:50:06.499Z,1021.13
2022-10-07T06:51:06.345Z,1021.13
2022-10-07T06:52:06.327Z,1021.14
2022-10-07T06:53:06.340Z,1021.12
2022-10-07T06:54:06.321Z,1021.11
2022-10-07T06:55:06.306Z,1021.11
2022-10-07T06:56:06.281Z,1021.11
2022-10-07T06:57:26.287Z,1021.17
2022-10-07T06:58:11.472Z,1021.11
2022-10-07T06:59:06.251Z,1021.12
2022-10-07T07:00:06.244Z,1021.16
2022-10-07T07:01:06.330Z,1021.14
2022-10-07T07:02:06.262Z,1021.14
2022-10-07T07:03:06.203Z,1021.14
2022-10-07T07:04:06.243Z,1021.10
2022-10-07T07:05:06.201Z,1021.13
2022-10-07T07:06:06.178Z,1021.13
2022-10-07T07:07:06.181Z,1021.16
2022-10-07T07:08:06.147Z,1021.16
2022-10-07T07:09:06.170Z,1021.16
2022-10-07T07:10:06.136Z,1021.16
2022-10-07T07:11:06.122Z,1021.16
2022-10-07T07:12:06.139Z,1021.13
2022-10-07T07:13:06.125Z,1021.08
2022-10-07T07:14:06.089Z,1021.12
2022-10-07T07:15:06.080Z,1021.09
2022-10-07T07:16:06.070Z,1021.09
2022-10-07T07:17:06.183Z,1021.13
2022-10-07T07:18:06.063Z,1021.15
2022-10-07T07:19:06.035Z,1021.15
2022-10-07T07:20:06.027Z,1021.06
2022-10-07T07:21:06.010Z,1021.10
2022-10-07T07:22:06.002Z,1021.10
2022-10-07T07:23:05.994Z,1021.07
2022-10-07T07:24:06.053Z,1021.04
2022-10-07T07:25:05.993Z,1021.09
2022-10-07T07:26:05.964Z,1021.03
2022-10-07T07:27:05.949Z,1021.09
2022-10-07T07:28:06.003Z,1021.04
2022-10-07T07:29:05.942Z,1021.05
2022-10-07T07:30:05.908Z,1021.06
2022-10-07T07:31:05.999Z,1021.03
2022-10-07T07:32:05.919Z,1021.05
2022-10-07T07:33:05.878Z,1021.05
2022-10-07T07:34:05.873Z,1020.99
2022-10-07T07:35:05.878Z,1021.09
2022-10-07T07:36:05.842Z,1021.01
2022-10-07T07:37:05.837Z,1021.02
2022-10-07T07:38:05.822Z,1020.96
2022-10-07T07:39:05.835Z,1021.01
2022-10-07T07:40:05.823Z,1020.95
2022-10-07T07:41:05.849Z,1020.96
2022-10-07T07:42:05.786Z,1020.96
2022-10-07T07:43:05.767Z,1020.92
2022-10-07T07:44:05.764Z,1020.93
2022-10-07T07:45:05.769Z,1020.89
2022-10-07T07:46:05.784Z,1020.92
2022-10-07T07:47:05.725Z,1020.84
2022-10-07T07:48:05.726Z,1020.84
2022-10-07T07:49:05.707Z,1020.82
2022-10-07T07:50:05.730Z,1020.82
2022-10-07T07:51:05.686Z,1020.84
2022-10-07T07:52:05.675Z,1020.92
2022-10-07T07:53:05.656Z,1020.88
2022-10-07T07:54:05.682Z,1020.91
2022-10-07T07:55:05.649Z,1020.92
2022-10-07T07:56:05.625Z,1020.89
2022-10-07T07:57:05.637Z,1020.92
2022-10-07T07:58:08.464Z,1020.84
2022-10-07T07:59:06.628Z,1020.84
2022-10-07T08:00:05.590Z,1020.87
2022-10-07T08:01:05.612Z,1020.88
2022-10-07T08:02:05.664Z,1020.87
2022-10-07T08:03:05.550Z,1020.81
2022-10-07T08:04:05.566Z,1020.83
2022-10-07T08:05:05.565Z,1020.81
2022-10-07T08:06:05.515Z,1020.85
2022-10-07T08:07:05.517Z,1020.79
2022-10-07T08:08:05.493Z,1020.83
2022-10-07T08:09:05.507Z,1020.75
2022-10-07T08:10:05.506Z,1020.75
2022-10-07T08:11:05.462Z,1020.80
2022-10-07T08:12:05.458Z,1020.78
2022-10-07T08:13:05.476Z,1020.77
2022-10-07T08:14:05.437Z,1020.81
2022-10-07T08:15:05.438Z,1020.78
2022-10-07T08:16:05.519Z,1020.79
2022-10-07T08:17:05.392Z,1020.76
2022-10-07T08:18:05.391Z,1020.74
2022-10-07T08:19:05.378Z,1020.72
2022-10-07T08:20:05.377Z,1020.71
2022-10-07T08:21:05.576Z,1020.75
2022-10-07T08:22:05.344Z,1020.72
2022-10-07T08:23:05.341Z,1020.73
2022-10-07T08:24:05.320Z,1020.79
2022-10-07T08:25:05.389Z,1020.71
2022-10-07T08:26:05.304Z,1020.63
2022-10-07T08:27:05.310Z,1020.67
2022-10-07T08:28:05.359Z,1020.66
2022-10-07T08:29:05.292Z,1020.64
2022-10-07T08:30:05.260Z,1020.65
2022-10-07T08:31:05.266Z,1020.64
2022-10-07T08:32:05.269Z,1020.59
2022-10-07T08:33:05.222Z,1020.61
2022-10-07T08:34:05.215Z,1020.61
2022-10-07T08:35:05.204Z,1020.59
2022-10-07T08:36:05.193Z,1020.63
2022-10-07T08:37:05.187Z,1020.74
2022-10-07T08:38:05.224Z,1020.75
2022-10-07T08:39:05.161Z,1020.72
2022-10-07T08:40:05.151Z,1020.72
2022-10-07T08:41:05.136Z,1020.76
2022-10-07T08:42:05.125Z,1020.71
2022-10-07T08:43:05.142Z,1020.70
2022-10-07T08:44:07.927Z,1020.63
2022-10-07T08:45:05.109Z,1020.64
2022-10-07T08:46:05.132Z,1020.65
2022-10-07T08:47:05.073Z,1020.70
2022-10-07T08:48:05.100Z,1020.67
2022-10-07T08:49:05.052Z,1020.68
2022-10-07T08:50:05.038Z,1020.59
2022-10-07T08:51:05.032Z,1020.60
2022-10-07T08:52:05.009Z,1020.62
2022-10-07T08:53:05.146Z,1020.61
2022-10-07T08:54:04.991Z,1020.66
2022-10-07T08:55:04.981Z,1020.60
2022-10-07T08:56:04.976Z,1020.59
2022-10-07T08:57:04.964Z,1020.61
2022-10-07T08:58:04.981Z,1020.61
2022-10-07T08:59:04.944Z,1020.59
2022-10-07T09:00:04.926Z,1020.59
2022-10-07T09:01:05.003Z,1020.57
2022-10-07T09:02:04.903Z,1020.57
2022-10-07T09:03:04.894Z,1020.57
2022-10-07T09:04:04.925Z,1020.52
2022-10-07T09:05:04.873Z,1020.49
2022-10-07T09:06:04.863Z,1020.31
2022-10-07T09:07:04.861Z,1020.28
2022-10-07T09:08:04.877Z,1020.20
2022-10-07T09:09:04.841Z,1020.17
2022-10-07T09:10:04.822Z,1020.22
2022-10-07T09:11:07.941Z,1020.17
2022-10-07T09:12:04.802Z,1020.13
2022-10-07T09:13:04.802Z,1020.08
2022-10-07T09:14:04.820Z,1020.10
2022-10-07T09:15:04.773Z,1020.07
2022-10-07T09:16:04.830Z,1020.01
2022-10-07T09:17:04.772Z,1020.04
2022-10-07T09:18:04.739Z,1020.06
2022-10-07T09:19:04.730Z,1019.99
2022-10-07T09:20:04.743Z,1019.95
2022-10-07T09:21:04.711Z,1019.98
2022-10-07T09:22:04.692Z,1019.97
2022-10-07T09:23:04.697Z,1019.99
2022-10-07T09:24:04.697Z,1019.95
2022-10-07T09:25:09.008Z,1020.00
2022-10-07T09:26:05.705Z,1019.95
2022-10-07T09:27:04.659Z,1019.92
2022-10-07T09:28:04.655Z,1019.93
2022-10-07T09:29:04.639Z,1019.91
2022-10-07T09:30:04.607Z,1019.90
2022-10-07T09:31:04.678Z,1019.88
2022-10-07T09:32:04.597Z,1019.78
2022-10-07T09:33:04.608Z,1019.85
2022-10-07T09:34:04.562Z,1019.87
2022-10-07T09:35:04.564Z,1019.82
2022-10-07T09:36:04.578Z,1019.84
2022-10-07T09:37:04.540Z,1019.85
2022-10-07T09:38:04.550Z,1019.82
2022-10-07T09:39:04.519Z,1019.85
2022-10-07T09:40:04.508Z,1019.79
2022-10-07T09:41:04.491Z,1019.81
2022-10-07T09:42:04.520Z,1020.02
2022-10-07T09:43:04.473Z,1019.99
2022-10-07T09:44:04.468Z,1019.97
2022-10-07T09:45:04.461Z,1020.00
2022-10-07T09:46:04.481Z,1019.72
2022-10-07T09:47:04.433Z,1019.82
2022-10-07T09:48:04.453Z,1019.71
2022-10-07T09:49:04.419Z,1019.66
2022-10-07T09:50:04.390Z,1019.62
2022-10-07T09:51:04.381Z,1019.56
2022-10-07T09:52:04.399Z,1019.63
2022-10-07T09:53:04.369Z,1019.67
2022-10-07T09:54:04.381Z,1019.58
2022-10-07T09:55:04.340Z,1019.60
2022-10-07T09:56:04.334Z,1019.61
2022-10-07T09:57:04.324Z,1019.57
2022-10-07T09:58:04.341Z,1019.57
2022-10-07T09:59:04.293Z,1019.55
2022-10-07T10:00:04.281Z,1019.59
2022-10-07T10:01:04.266Z,1019.56
2022-10-07T10:02:04.381Z,1019.54
2022-10-07T10:03:05.735Z,1019.60
2022-10-07T10:04:04.245Z,1019.55
2022-10-07T10:05:04.243Z,1019.48
2022-10-07T10:06:04.255Z,1019.55
2022-10-07T10:07:04.212Z,1019.52
2022-10-07T10:08:04.203Z,1019.53
2022-10-07T10:09:04.188Z,1019.54
2022-10-07T10:10:04.183Z,1019.54
2022-10-07T10:11:04.167Z,1019.54
2022-10-07T10:12:04.194Z,1019.49
2022-10-07T10:13:04.139Z,1019.44
2022-10-07T10:14:04.127Z,1019.48
2022-10-07T10:15:04.152Z,1019.45
2022-10-07T10:16:04.201Z,1019.46
2022-10-07T10:17:04.098Z,1019.41
2022-10-07T10:18:04.214Z,1019.33
2022-10-07T10:19:04.075Z,1019.46
2022-10-07T10:20:04.088Z,1019.40
2022-10-07T10:21:04.076Z,1019.38
2022-10-07T10:22:04.041Z,1019.36
2022-10-07T10:23:04.069Z,1019.31
2022-10-07T10:24:04.021Z,1019.29
2022-10-07T10:25:04.007Z,1019.31
2022-10-07T10:26:04.030Z,1019.30
2022-10-07T10:27:03.994Z,1019.28
2022-10-07T10:28:04.704Z,1019.21
2022-10-07T10:29:03.996Z,1019.20
2022-10-07T10:30:03.972Z,1019.18
2022-10-07T10:31:04.012Z,1019.17
2022-10-07T10:32:03.930Z,1019.15
2022-10-07T10:33:03.929Z,1019.14
2022-10-07T10:34:03.915Z,1019.13
2022-10-07T10:35:03.925Z,1019.12
2022-10-07T10:36:03.886Z,1019.09
2022-10-07T10:37:03.905Z,1019.10
2022-10-07T10:38:03.870Z,1019.13
2022-10-07T10:39:03.865Z,1019.09
2022-10-07T10:40:03.876Z,1019.03
2022-10-07T10:41:03.836Z,1018.99
2022-10-07T10:42:03.824Z,1018.94
2022-10-07T10:43:03.836Z,1018.93
2022-10-07T10:44:03.812Z,1018.91
2022-10-07T10:45:03.814Z,1018.91
2022-10-07T10:46:03.816Z,1018.90
2022-10-07T10:47:03.848Z,1018.87
2022-10-07T10:48:03.767Z,1018.88
2022-10-07T10:49:03.746Z,1018.84
2022-10-07T10:50:03.763Z,1018.81
2022-10-07T10:51:03.724Z,1018.87
2022-10-07T10:52:03.719Z,1018.82
2022-10-07T10:53:03.729Z,1018.79
2022-10-07T10:54:03.695Z,1018.78
2022-10-07T10:55:03.680Z,1018.71
2022-10-07T10:56:03.710Z,1018.66
2022-10-07T10:57:03.656Z,1018.67
2022-10-07T10:58:03.656Z,1018.62
2022-10-07T10:59:03.643Z,1018.66
2022-10-07T11:00:03.660Z,1018.66
2022-10-07T11:01:03.622Z,1018.54
2022-10-07T11:02:03.702Z,1018.51
2022-10-07T11:03:03.689Z,1018.49
2022-10-07T11:04:03.614Z,1018.56
2022-10-07T11:05:03.573Z,1018.46
2022-10-07T11:06:03.560Z,1018.45
2022-10-07T11:07:03.581Z,1018.42
2022-10-07T11:08:03.536Z,1018.31
2022-10-07T11:09:03.597Z,1018.39
2022-10-07T11:10:03.559Z,1018.33
2022-10-07T11:11:03.512Z,1018.31
2022-10-07T11:12:03.502Z,1018.24
2022-10-07T11:13:03.487Z,1018.31
2022-10-07T11:14:03.468Z,1018.26
2022-10-07T11:15:03.468Z,1018.23
2022-10-07T11:16:03.509Z,1018.16
2022-10-07T11:17:03.437Z,1018.14
2022-10-07T11:18:03.428Z,1018.24
2022-10-07T11:19:03.426Z,1018.18
2022-10-07T11:20:03.414Z,1018.11
2022-10-07T11:21:03.826Z,1018.12
2022-10-07T11:22:03.414Z,1018.12
2022-10-07T11:23:03.381Z,1018.07
2022-10-07T11:24:03.373Z,1018.05
2022-10-07T11:25:03.380Z,1018.00
2022-10-07T11:26:03.373Z,1018.05
2022-10-07T11:27:03.331Z,1018.03
2022-10-07T11:28:03.367Z,1018.03
2022-10-07T11:29:03.315Z,1018.05
2022-10-07T11:30:03.302Z,1017.99
2022-10-07T11:31:03.399Z,1017.98
2022-10-07T11:32:03.325Z,1017.88
2022-10-07T11:33:03.271Z,1017.89
2022-10-07T11:34:03.258Z,1017.88
2022-10-07T11:35:03.248Z,1017.90
2022-10-07T11:36:03.238Z,1017.87
2022-10-07T11:37:03.250Z,1017.84
2022-10-07T11:38:03.214Z,1017.86
2022-10-07T11:39:03.222Z,1017.83
2022-10-07T11:40:03.238Z,1017.84
2022-10-07T11:41:03.227Z,1017.80
2022-10-07T11:42:03.171Z,1017.78
2022-10-07T11:43:03.188Z,1017.78
2022-10-07T11:44:03.149Z,1017.72
2022-10-07T11:45:03.139Z,1017.71
2022-10-07T11:46:07.924Z,1017.71
2022-10-07T11:47:03.182Z,1017.70
2022-10-07T11:48:03.115Z,1017.63
2022-10-07T11:49:04.743Z,1017.64
2022-10-07T11:50:03.078Z,1017.64
2022-10-07T11:51:03.072Z,1017.60
2022-10-07T11:52:03.070Z,1017.61
2022-10-07T11:53:03.046Z,1017.60
2022-10-07T11:54:03.070Z,1017.60
2022-10-07T11:55:03.024Z,1017.60
2022-10-07T11:56:03.036Z,1017.58
2022-10-07T11:57:03.026Z,1017.54
2022-10-07T11:58:02.990Z,1017.41
2022-10-07T11:59:03.000Z,1017.42
2022-10-07T12:00:03.245Z,1017.44
2022-10-07T12:01:02.964Z,1017.47
2022-10-07T12:02:03.052Z,1017.40
2022-10-07T12:03:02.967Z,1017.40
2022-10-07T12:04:02.929Z,1017.38
2022-10-07T12:05:02.934Z,1017.43